sensor_id;sensor_type;location;lat;lon;timestamp;pressure;altitude;pressure_sealevel;temperature;humidity
71457;BME280;59263;48.160;11.752;2023-08-06T00:00:27;95334.22;;;14.67;100.00
71457;BME280;59263;48.160;11.752;2023-08-06T00:02:53;95342.59;;;14.62;100.00
71457;BME280;59263;48.160;11.752;2023-08-06T00:05:18;95344.56;;;14.60;100.00
71457;BME280;59263;48.160;11.752;2023-08-06T00:07:48;95351.47;;;14.53;100.00
71457;BME280;59263;48.160;11.752;2023-08-06T00:10:14;95336.13;;;14.58;100.00
71457;BME280;59263;48.160;11.752;2023-08-06T00:12:40;95351.75;;;14.58;100.00
71457;BME280;59263;48.160;11.752;2023-08-06T00:15:06;95344.91;;;14.57;100.00
71457;BME280;59263;48.160;11.752;2023-08-06T00:17:31;95348.50;;;14.56;100.00
71457;BME280;59263;48.160;11.752;2023-08-06T00:19:57;95353.63;;;14.64;100.00
71457;BME280;59263;48.160;11.752;2023-08-06T00:22:22;95341.50;;;14.57;100.00
71457;BME280;59263;48.160;11.752;2023-08-06T00:24:47;95340.75;;;14.48;100.00
71457;BME280;59263;48.160;11.752;2023-08-06T00:27:13;95357.66;;;14.52;100.00
71457;BME280;59263;48.160;11.752;2023-08-06T00:29:38;95358.41;;;14.38;100.00
71457;BME280;59263;48.160;11.752;2023-08-06T00:32:03;95350.34;;;14.33;100.00
71457;BME280;59263;48.160;11.752;2023-08-06T00:34:29;95350.69;;;14.29;100.00
71457;BME280;59263;48.160;11.752;2023-08-06T00:36:54;95352.66;;;14.27;100.00
71457;BME280;59263;48.160;11.752;2023-08-06T00:39:19;95362.09;;;14.28;100.00
71457;BME280;59263;48.160;11.752;2023-08-06T00:41:45;95344.13;;;14.19;100.00
71457;BME280;59263;48.160;11.752;2023-08-06T00:44:10;95337.84;;;14.13;100.00
71457;BME280;59263;48.160;11.752;2023-08-06T00:46:35;95361.88;;;14.15;100.00
71457;BME280;59263;48.160;11.752;2023-08-06T00:49:01;95355.69;;;14.16;100.00
71457;BME280;59263;48.160;11.752;2023-08-06T00:51:27;95349.22;;;14.12;100.00
71457;BME280;59263;48.160;11.752;2023-08-06T00:53:52;95342.31;;;14.19;100.00
71457;BME280;59263;48.160;11.752;2023-08-06T00:56:18;95339.22;;;14.24;100.00
71457;BME280;59263;48.160;11.752;2023-08-06T00:58:45;95335.88;;;14.15;100.00
71457;BME280;59263;48.160;11.752;2023-08-06T01:01:10;95327.22;;;14.00;100.00
71457;BME280;59263;48.160;11.752;2023-08-06T01:03:36;95328.13;;;14.07;100.00
71457;BME280;59263;48.160;11.752;2023-08-06T01:06:01;95330.47;;;14.02;100.00
71457;BME280;59263;48.160;11.752;2023-08-06T01:09:06;95331.16;;;13.96;100.00
71457;BME280;59263;48.160;11.752;2023-08-06T01:11:52;95327.00;;;13.87;100.00
71457;BME280;59263;48.160;11.752;2023-08-06T01:14:28;95327.13;;;13.70;100.00
71457;BME280;59263;48.160;11.752;2023-08-06T01:16:56;95318.72;;;13.68;100.00
71457;BME280;59263;48.160;11.752;2023-08-06T01:19:23;95327.47;;;13.67;100.00
71457;BME280;59263;48.160;11.752;2023-08-06T01:21:48;95336.16;;;13.60;100.00
71457;BME280;59263;48.160;11.752;2023-08-06T01:24:13;95328.41;;;13.51;100.00
71457;BME280;59263;48.160;11.752;2023-08-06T01:26:45;95329.81;;;13.62;100.00
71457;BME280;59263;48.160;11.752;2023-08-06T01:29:19;95325.63;;;13.53;100.00
71457;BME280;59263;48.160;11.752;2023-08-06T01:31:48;95335.53;;;13.58;100.00
71457;BME280;59263;48.160;11.752;2023-08-06T01:34:28;95330.44;;;13.64;100.00
71457;BME280;59263;48.160;11.752;2023-08-06T01:36:56;95328.53;;;13.58;100.00
71457;BME280;59263;48.160;11.752;2023-08-06T01:39:22;95330.50;;;13.56;100.00
71457;BME280;59263;48.160;11.752;2023-08-06T01:41:48;95317.84;;;13.53;100.00
71457;BME280;59263;48.160;11.752;2023-08-06T01:44:14;95317.81;;;13.61;100.00
71457;BME280;59263;48.160;11.752;2023-08-06T01:46:39;95323.00;;;13.61;100.00
71457;BME280;59263;48.160;11.752;2023-08-06T01:49:04;95318.41;;;13.63;100.00
71457;BME280;59263;48.160;11.752;2023-08-06T01:51:29;95316.50;;;13.57;100.00
71457;BME280;59263;48.160;11.752;2023-08-06T01:53:55;95308.09;;;13.55;100.00
71457;BME280;59263;48.160;11.752;2023-08-06T01:56:20;95310.69;;;13.55;100.00
71457;BME280;59263;48.160;11.752;2023-08-06T01:58:46;95301.63;;;13.51;100.00
71457;BME280;59263;48.160;11.752;2023-08-06T02:01:11;95311.69;;;13.54;100.00
71457;BME280;59263;48.160;11.752;2023-08-06T02:03:36;95311.69;;;13.54;100.00
71457;BME280;59263;48.160;11.752;2023-08-06T02:06:02;95314.63;;;13.51;100.00
71457;BME280;59263;48.160;11.752;2023-08-06T02:08:27;95311.69;;;13.54;100.00
71457;BME280;59263;48.160;11.752;2023-08-06T02:10:52;95317.56;;;13.48;100.00
71457;BME280;59263;48.160;11.752;2023-08-06T02:13:18;95309.56;;;13.49;100.00
71457;BME280;59263;48.160;11.752;2023-08-06T02:15:45;95305.22;;;13.50;100.00
71457;BME280;59263;48.160;11.752;2023-08-06T02:18:13;95299.56;;;13.46;100.00
71457;BME280;59263;48.160;11.752;2023-08-06T02:20:38;95293.63;;;13.52;100.00
71457;BME280;59263;48.160;11.752;2023-08-06T02:23:03;95298.50;;;13.55;100.00
71457;BME280;59263;48.160;11.752;2023-08-06T02:25:29;95293.81;;;13.51;100.00
71457;BME280;59263;48.160;11.752;2023-08-06T02:27:54;95289.25;;;13.53;100.00
71457;BME280;59263;48.160;11.752;2023-08-06T02:30:19;95301.91;;;13.56;100.00
71457;BME280;59263;48.160;11.752;2023-08-06T02:32:45;95295.03;;;13.63;100.00
71457;BME280;59263;48.160;11.752;2023-08-06T02:35:10;95285.31;;;13.57;100.00
71457;BME280;59263;48.160;11.752;2023-08-06T02:37:36;95287.28;;;13.55;100.00
71457;BME280;59263;48.160;11.752;2023-08-06T02:40:02;95277.25;;;13.52;100.00
71457;BME280;59263;48.160;11.752;2023-08-06T02:42:27;95276.56;;;13.58;100.00
71457;BME280;59263;48.160;11.752;2023-08-06T02:44:53;95275.75;;;13.58;100.00
71457;BME280;59263;48.160;11.752;2023-08-06T02:47:21;95266.38;;;13.48;100.00
71457;BME280;59263;48.160;11.752;2023-08-06T02:49:46;95258.31;;;13.43;100.00
71457;BME280;59263;48.160;11.752;2023-08-06T02:52:12;95269.44;;;13.52;100.00
71457;BME280;59263;48.160;11.752;2023-08-06T02:54:37;95258.78;;;13.47;100.00
71457;BME280;59263;48.160;11.752;2023-08-06T02:57:03;95254.91;;;13.43;100.00
71457;BME280;59263;48.160;11.752;2023-08-06T02:59:28;95249.41;;;13.38;100.00
71457;BME280;59263;48.160;11.752;2023-08-06T03:01:53;95247.34;;;13.33;100.00
71457;BME280;59263;48.160;11.752;2023-08-06T03:04:19;95232.44;;;13.27;100.00
71457;BME280;59263;48.160;11.752;2023-08-06T03:06:44;95226.13;;;13.21;100.00
71457;BME280;59263;48.160;11.752;2023-08-06T03:09:09;95235.06;;;13.42;100.00
71457;BME280;59263;48.160;11.752;2023-08-06T03:11:34;95245.19;;;13.37;100.00
71457;BME280;59263;48.160;11.752;2023-08-06T03:14:00;95234.88;;;13.28;100.00
71457;BME280;59263;48.160;11.752;2023-08-06T03:16:25;95241.22;;;13.26;100.00
71457;BME280;59263;48.160;11.752;2023-08-06T03:18:50;95234.88;;;13.28;100.00
71457;BME280;59263;48.160;11.752;2023-08-06T03:21:16;95240.41;;;13.25;100.00
71457;BME280;59263;48.160;11.752;2023-08-06T03:23:41;95244.00;;;13.24;100.00
71457;BME280;59263;48.160;11.752;2023-08-06T03:26:07;95250.16;;;13.23;100.00
71457;BME280;59263;48.160;11.752;2023-08-06T03:28:32;95261.84;;;13.27;100.00
71457;BME280;59263;48.160;11.752;2023-08-06T03:31:01;95263.47;;;13.20;100.00
71457;BME280;59263;48.160;11.752;2023-08-06T03:33:27;95257.59;;;13.26;100.00
71457;BME280;59263;48.160;11.752;2023-08-06T03:35:52;95249.00;;;13.26;100.00
71457;BME280;59263;48.160;11.752;2023-08-06T03:38:17;95250.47;;;13.28;100.00
71457;BME280;59263;48.160;11.752;2023-08-06T03:40:43;95248.50;;;13.22;100.00
71457;BME280;59263;48.160;11.752;2023-08-06T03:43:08;95242.25;;;13.17;100.00
71457;BME280;59263;48.160;11.752;2023-08-06T03:45:33;95237.25;;;13.07;100.00
71457;BME280;59263;48.160;11.752;2023-08-06T03:47:59;95245.34;;;13.12;100.00
71457;BME280;59263;48.160;11.752;2023-08-06T03:50:24;95239.34;;;13.12;100.00
71457;BME280;59263;48.160;11.752;2023-08-06T03:52:49;95228.78;;;13.13;100.00
71457;BME280;59263;48.160;11.752;2023-08-06T03:55:15;95238.81;;;13.24;100.00
71457;BME280;59263;48.160;11.752;2023-08-06T03:57:40;95228.72;;;13.21;100.00
71457;BME280;59263;48.160;11.752;2023-08-06T04:00:06;95229.41;;;13.15;100.00
71457;BME280;59263;48.160;11.752;2023-08-06T04:02:32;95227.44;;;13.17;100.00
71457;BME280;59263;48.160;11.752;2023-08-06T04:04:57;95230.22;;;13.16;100.00
71457;BME280;59263;48.160;11.752;2023-08-06T04:07:24;95231.38;;;13.13;100.00
71457;BME280;59263;48.160;11.752;2023-08-06T04:09:54;95221.34;;;13.10;100.00
71457;BME280;59263;48.160;11.752;2023-08-06T04:12:20;95228.94;;;13.12;100.00
71457;BME280;59263;48.160;11.752;2023-08-06T04:14:45;95230.13;;;13.09;100.00
71457;BME280;59263;48.160;11.752;2023-08-06T04:17:10;95228.72;;;12.98;100.00
71457;BME280;59263;48.160;11.752;2023-08-06T04:19:35;95234.00;;;13.05;100.00
71457;BME280;59263;48.160;11.752;2023-08-06T04:22:01;95226.94;;;12.99;100.00
71457;BME280;59263;48.160;11.752;2023-08-06T04:24:26;95220.88;;;13.06;100.00
71457;BME280;59263;48.160;11.752;2023-08-06T04:26:51;95218.44;;;13.05;100.00
71457;BME280;59263;48.160;11.752;2023-08-06T04:29:16;95221.28;;;13.18;100.00
71457;BME280;59263;48.160;11.752;2023-08-06T04:31:42;95222.59;;;13.14;100.00
71457;BME280;59263;48.160;11.752;2023-08-06T04:34:07;95223.94;;;13.10;100.00
71457;BME280;59263;48.160;11.752;2023-08-06T04:36:34;95222.94;;;13.11;100.00
71457;BME280;59263;48.160;11.752;2023-08-06T04:38:59;95214.53;;;13.09;100.00
71457;BME280;59263;48.160;11.752;2023-08-06T04:41:24;95224.28;;;13.07;100.00
71457;BME280;59263;48.160;11.752;2023-08-06T04:43:50;95229.41;;;13.15;100.00
71457;BME280;59263;48.160;11.752;2023-08-06T04:46:15;95216.72;;;13.20;100.00
71457;BME280;59263;48.160;11.752;2023-08-06T04:48:40;95215.72;;;13.21;100.00
71457;BME280;59263;48.160;11.752;2023-08-06T04:51:06;95218.00;;;13.24;100.00
71457;BME280;59263;48.160;11.752;2023-08-06T04:53:31;95206.22;;;13.37;100.00
71457;BME280;59263;48.160;11.752;2023-08-06T04:55:56;95206.56;;;13.34;100.00
71457;BME280;59263;48.160;11.752;2023-08-06T04:58:22;95218.69;;;13.41;100.00
71457;BME280;59263;48.160;11.752;2023-08-06T05:00:47;95214.25;;;13.50;100.00
71457;BME280;59263;48.160;11.752;2023-08-06T05:03:12;95201.16;;;13.58;100.00
71457;BME280;59263;48.160;11.752;2023-08-06T05:05:40;95210.94;;;13.71;100.00
71457;BME280;59263;48.160;11.752;2023-08-06T05:08:06;95202.97;;;13.72;100.00
71457;BME280;59263;48.160;11.752;2023-08-06T05:10:31;95209.59;;;13.75;100.00
71457;BME280;59263;48.160;11.752;2023-08-06T05:12:56;95215.53;;;13.69;100.00
71457;BME280;59263;48.160;11.752;2023-08-06T05:15:22;95211.13;;;13.69;100.00
71457;BME280;59263;48.160;11.752;2023-08-06T05:17:47;95210.41;;;13.75;100.00
71457;BME280;59263;48.160;11.752;2023-08-06T05:20:13;95197.13;;;13.70;100.00
71457;BME280;59263;48.160;11.752;2023-08-06T05:22:38;95211.69;;;13.79;100.00
71457;BME280;59263;48.160;11.752;2023-08-06T05:25:03;95224.72;;;13.94;100.00
71457;BME280;59263;48.160;11.752;2023-08-06T05:27:29;95217.72;;;13.95;100.00
71457;BME280;59263;48.160;11.752;2023-08-06T05:29:55;95217.16;;;13.85;100.00
71457;BME280;59263;48.160;11.752;2023-08-06T05:32:23;95213.91;;;13.83;100.00
71457;BME280;59263;48.160;11.752;2023-08-06T05:34:48;95214.00;;;13.74;100.00
71457;BME280;59263;48.160;11.752;2023-08-06T05:37:14;95226.00;;;13.75;100.00
71457;BME280;59263;48.160;11.752;2023-08-06T05:39:39;95226.00;;;13.75;100.00
71457;BME280;59263;48.160;11.752;2023-08-06T05:42:05;95213.34;;;13.58;100.00
71457;BME280;59263;48.160;11.752;2023-08-06T05:44:30;95225.47;;;13.65;100.00
71457;BME280;59263;48.160;11.752;2023-08-06T05:46:56;95226.38;;;13.72;100.00
71457;BME280;59263;48.160;11.752;2023-08-06T05:49:21;95222.22;;;13.63;100.00
71457;BME280;59263;48.160;11.752;2023-08-06T05:51:46;95221.78;;;13.60;100.00
71457;BME280;59263;48.160;11.752;2023-08-06T05:54:12;95222.25;;;13.78;100.00
71457;BME280;59263;48.160;11.752;2023-08-06T05:56:37;95222.53;;;13.83;100.00
71457;BME280;59263;48.160;11.752;2023-08-06T05:59:02;95195.63;;;13.76;100.00
71457;BME280;59263;48.160;11.752;2023-08-06T06:01:27;95210.78;;;13.72;100.00
71457;BME280;59263;48.160;11.752;2023-08-06T06:03:53;95209.78;;;13.73;100.00
71457;BME280;59263;48.160;11.752;2023-08-06T06:06:18;95222.34;;;13.70;100.00
71457;BME280;59263;48.160;11.752;2023-08-06T06:08:45;95214.72;;;13.68;100.00
71457;BME280;59263;48.160;11.752;2023-08-06T06:11:10;95191.94;;;13.70;100.00
71457;BME280;59263;48.160;11.752;2023-08-06T06:13:35;95205.66;;;13.79;100.00
71457;BME280;59263;48.160;11.752;2023-08-06T06:16:01;95212.22;;;13.90;100.00
71457;BME280;59263;48.160;11.752;2023-08-06T06:18:26;95211.25;;;13.91;100.00
71457;BME280;59263;48.160;11.752;2023-08-06T06:20:51;95212.41;;;13.88;100.00
71457;BME280;59263;48.160;11.752;2023-08-06T06:23:16;95211.25;;;13.91;100.00
71457;BME280;59263;48.160;11.752;2023-08-06T06:25:49;95208.66;;;13.91;100.00
71457;BME280;59263;48.160;11.752;2023-08-06T06:28:17;95208.25;;;13.94;100.00
71457;BME280;59263;48.160;11.752;2023-08-06T06:30:42;95211.50;;;13.96;100.00
71457;BME280;59263;48.160;11.752;2023-08-06T06:33:07;95204.78;;;14.01;100.00
71457;BME280;59263;48.160;11.752;2023-08-06T06:35:33;95203.25;;;14.07;100.00
71457;BME280;59263;48.160;11.752;2023-08-06T06:37:58;95195.34;;;14.15;100.00
71457;BME280;59263;48.160;11.752;2023-08-06T06:40:25;95177.16;;;14.00;100.00
71457;BME280;59263;48.160;11.752;2023-08-06T06:42:50;95188.44;;;14.22;100.00
71457;BME280;59263;48.160;11.752;2023-08-06T06:45:15;95173.47;;;14.24;100.00
71457;BME280;59263;48.160;11.752;2023-08-06T06:47:41;95185.94;;;14.29;100.00
71457;BME280;59263;48.160;11.752;2023-08-06T06:50:06;95185.28;;;14.42;100.00
71457;BME280;59263;48.160;11.752;2023-08-06T06:52:31;95182.78;;;14.34;100.00
71457;BME280;59263;48.160;11.752;2023-08-06T06:54:57;95181.16;;;14.47;100.00
71457;BME280;59263;48.160;11.752;2023-08-06T06:57:22;95179.00;;;14.51;100.00
71457;BME280;59263;48.160;11.752;2023-08-06T06:59:47;95168.25;;;14.54;100.00
71457;BME280;59263;48.160;11.752;2023-08-06T07:02:13;95154.22;;;14.55;100.00
71457;BME280;59263;48.160;11.752;2023-08-06T07:04:38;95163.53;;;14.64;100.00
71457;BME280;59263;48.160;11.752;2023-08-06T07:07:03;95180.91;;;14.79;100.00
71457;BME280;59263;48.160;11.752;2023-08-06T07:09:29;95172.16;;;14.86;100.00
71457;BME280;59263;48.160;11.752;2023-08-06T07:11:54;95175.78;;;14.85;100.00
71457;BME280;59263;48.160;11.752;2023-08-06T07:14:19;95165.78;;;14.89;100.00
71457;BME280;59263;48.160;11.752;2023-08-06T07:16:45;95172.88;;;14.95;100.00
71457;BME280;59263;48.160;11.752;2023-08-06T07:19:10;95148.28;;;15.04;100.00
71457;BME280;59263;48.160;11.752;2023-08-06T07:21:36;95153.25;;;15.20;100.00
71457;BME280;59263;48.160;11.752;2023-08-06T07:24:01;95157.97;;;15.32;100.00
71457;BME280;59263;48.160;11.752;2023-08-06T07:26:26;95150.16;;;15.38;100.00
71457;BME280;59263;48.160;11.752;2023-08-06T07:28:52;95136.09;;;15.33;100.00
71457;BME280;59263;48.160;11.752;2023-08-06T07:31:17;95146.91;;;15.30;100.00
71457;BME280;59263;48.160;11.752;2023-08-06T07:33:42;95152.84;;;15.23;100.00
71457;BME280;59263;48.160;11.752;2023-08-06T07:36:12;95153.69;;;15.24;100.00
71457;BME280;59263;48.160;11.752;2023-08-06T07:38:38;95144.44;;;15.21;100.00
71457;BME280;59263;48.160;11.752;2023-08-06T07:41:04;95146.91;;;15.08;100.00
71457;BME280;59263;48.160;11.752;2023-08-06T07:43:29;95122.16;;;14.97;100.00
71457;BME280;59263;48.160;11.752;2023-08-06T07:45:58;95140.00;;;14.72;100.00
71457;BME280;59263;48.160;11.752;2023-08-06T07:48:24;95139.06;;;14.44;100.00
71457;BME280;59263;48.160;11.752;2023-08-06T07:50:52;95170.91;;;14.46;100.00
71457;BME280;59263;48.160;11.752;2023-08-06T07:53:21;95170.41;;;14.36;100.00
71457;BME280;59263;48.160;11.752;2023-08-06T07:55:51;95174.72;;;14.28;100.00
71457;BME280;59263;48.160;11.752;2023-08-06T07:58:17;95196.25;;;14.22;100.00
71457;BME280;59263;48.160;11.752;2023-08-06T08:00:42;95187.91;;;14.27;100.00
71457;BME280;59263;48.160;11.752;2023-08-06T08:03:13;95168.97;;;14.18;100.00
71457;BME280;59263;48.160;11.752;2023-08-06T08:05:39;95168.16;;;14.33;100.00
71457;BME280;59263;48.160;11.752;2023-08-06T08:08:05;95162.50;;;14.29;100.00
71457;BME280;59263;48.160;11.752;2023-08-06T08:10:31;95144.72;;;14.33;100.00
71457;BME280;59263;48.160;11.752;2023-08-06T08:12:57;95123.91;;;14.33;100.00
71457;BME280;59263;48.160;11.752;2023-08-06T08:15:22;95133.50;;;14.47;100.00
71457;BME280;59263;48.160;11.752;2023-08-06T08:17:47;95101.00;;;14.43;100.00
71457;BME280;59263;48.160;11.752;2023-08-06T08:20:13;95129.06;;;14.62;100.00
71457;BME280;59263;48.160;11.752;2023-08-06T08:22:38;95120.69;;;14.67;100.00
71457;BME280;59263;48.160;11.752;2023-08-06T08:25:04;95089.50;;;14.73;100.00
71457;BME280;59263;48.160;11.752;2023-08-06T08:27:30;95103.91;;;14.91;100.00
71457;BME280;59263;48.160;11.752;2023-08-06T08:29:55;95079.06;;;15.23;100.00
71457;BME280;59263;48.160;11.752;2023-08-06T08:32:21;95082.31;;;15.60;100.00
71457;BME280;59263;48.160;11.752;2023-08-06T08:34:46;95066.66;;;15.88;100.00
71457;BME280;59263;48.160;11.752;2023-08-06T08:37:13;95070.66;;;15.84;100.00
71457;BME280;59263;48.160;11.752;2023-08-06T08:39:38;95085.50;;;15.90;100.00
71457;BME280;59263;48.160;11.752;2023-08-06T08:42:03;95079.44;;;15.83;100.00
71457;BME280;59263;48.160;11.752;2023-08-06T08:44:29;95081.00;;;15.70;100.00
71457;BME280;59263;48.160;11.752;2023-08-06T08:46:57;95074.56;;;15.66;100.00
71457;BME280;59263;48.160;11.752;2023-08-06T08:49:23;95087.13;;;15.56;100.00
71457;BME280;59263;48.160;11.752;2023-08-06T08:51:50;95068.63;;;15.51;100.00
71457;BME280;59263;48.160;11.752;2023-08-06T08:54:18;95079.91;;;15.58;100.00
71457;BME280;59263;48.160;11.752;2023-08-06T08:56:45;95079.72;;;15.60;100.00
71457;BME280;59263;48.160;11.752;2023-08-06T08:59:10;95068.00;;;15.49;100.00
71457;BME280;59263;48.160;11.752;2023-08-06T09:01:37;95092.00;;;15.38;100.00
71457;BME280;59263;48.160;11.752;2023-08-06T09:04:05;95086.31;;;15.28;100.00
71457;BME280;59263;48.160;11.752;2023-08-06T09:06:33;95089.19;;;15.33;100.00
71457;BME280;59263;48.160;11.752;2023-08-06T09:09:06;95095.41;;;15.32;100.00
71457;BME280;59263;48.160;11.752;2023-08-06T09:11:37;95092.78;;;15.32;100.00
71457;BME280;59263;48.160;11.752;2023-08-06T09:14:09;95095.91;;;15.20;100.00
71457;BME280;59263;48.160;11.752;2023-08-06T09:16:37;95105.91;;;15.17;100.00
71457;BME280;59263;48.160;11.752;2023-08-06T09:19:09;95110.56;;;15.21;100.00
71457;BME280;59263;48.160;11.752;2023-08-06T09:21:42;95105.09;;;15.16;100.00
71457;BME280;59263;48.160;11.752;2023-08-06T09:24:13;95100.66;;;15.10;100.00
71457;BME280;59263;48.160;11.752;2023-08-06T09:26:41;95096.81;;;14.85;100.00
71457;BME280;59263;48.160;11.752;2023-08-06T09:29:07;95109.66;;;14.86;100.00
71457;BME280;59263;48.160;11.752;2023-08-06T09:31:40;95123.25;;;14.82;100.00
71457;BME280;59263;48.160;11.752;2023-08-06T09:34:19;95125.59;;;14.76;100.00
71457;BME280;59263;48.160;11.752;2023-08-06T09:36:54;95137.56;;;14.71;100.00
71457;BME280;59263;48.160;11.752;2023-08-06T09:39:21;95128.34;;;14.68;100.00
71457;BME280;59263;48.160;11.752;2023-08-06T09:41:47;95130.22;;;14.60;100.00
71457;BME280;59263;48.160;11.752;2023-08-06T09:44:17;95138.13;;;14.66;100.00
71457;BME280;59263;48.160;11.752;2023-08-06T09:46:50;95140.72;;;14.66;100.00
71457;BME280;59263;48.160;11.752;2023-08-06T09:49:20;95127.25;;;14.63;100.00
71457;BME280;59263;48.160;11.752;2023-08-06T09:51:48;95130.66;;;14.63;100.00
71457;BME280;59263;48.160;11.752;2023-08-06T09:54:17;95123.81;;;14.77;100.00
71457;BME280;59263;48.160;11.752;2023-08-06T09:56:44;95115.28;;;14.90;100.00
71457;BME280;59263;48.160;11.752;2023-08-06T09:59:10;95129.81;;;14.99;100.00
71457;BME280;59263;48.160;11.752;2023-08-06T10:01:36;95117.44;;;15.08;100.00
71457;BME280;59263;48.160;11.752;2023-08-06T10:04:03;95115.84;;;15.07;100.00
71457;BME280;59263;48.160;11.752;2023-08-06T10:06:31;95119.75;;;14.96;100.00
71457;BME280;59263;48.160;11.752;2023-08-06T10:08:58;95110.84;;;14.84;100.00
71457;BME280;59263;48.160;11.752;2023-08-06T10:11:24;95125.84;;;14.82;100.00
71457;BME280;59263;48.160;11.752;2023-08-06T10:13:57;95110.44;;;14.87;100.00
71457;BME280;59263;48.160;11.752;2023-08-06T10:16:23;95108.19;;;15.05;100.00
71457;BME280;59263;48.160;11.752;2023-08-06T10:18:50;95113.41;;;15.05;100.00
71457;BME280;59263;48.160;11.752;2023-08-06T10:21:16;95102.53;;;14.95;100.00
71457;BME280;59263;48.160;11.752;2023-08-06T10:23:41;95099.72;;;14.96;100.00
71457;BME280;59263;48.160;11.752;2023-08-06T10:26:07;95121.44;;;15.04;100.00
71457;BME280;59263;48.160;11.752;2023-08-06T10:28:39;95115.06;;;15.06;100.00
71457;BME280;59263;48.160;11.752;2023-08-06T10:31:05;95103.00;;;15.05;100.00
71457;BME280;59263;48.160;11.752;2023-08-06T10:33:44;95096.59;;;15.08;100.00
71457;BME280;59263;48.160;11.752;2023-08-06T10:36:10;95099.78;;;15.59;100.00
71457;BME280;59263;48.160;11.752;2023-08-06T10:38:44;95101.69;;;16.13;100.00
71457;BME280;59263;48.160;11.752;2023-08-06T10:41:15;95086.06;;;16.27;100.00
71457;BME280;59263;48.160;11.752;2023-08-06T10:43:41;95074.81;;;16.26;100.00
71457;BME280;59263;48.160;11.752;2023-08-06T10:46:23;95094.50;;;16.29;100.00
71457;BME280;59263;48.160;11.752;2023-08-06T10:48:51;95092.81;;;16.08;100.00
71457;BME280;59263;48.160;11.752;2023-08-06T10:51:17;95104.53;;;15.77;100.00
71457;BME280;59263;48.160;11.752;2023-08-06T10:53:47;95112.13;;;15.44;100.00
71457;BME280;59263;48.160;11.752;2023-08-06T10:56:17;95111.63;;;15.34;100.00
71457;BME280;59263;48.160;11.752;2023-08-06T10:58:43;95120.31;;;15.41;100.00
71457;BME280;59263;48.160;11.752;2023-08-06T11:01:09;95117.94;;;15.46;100.00
71457;BME280;59263;48.160;11.752;2023-08-06T11:03:36;95133.34;;;15.41;100.00
71457;BME280;59263;48.160;11.752;2023-08-06T11:06:01;95105.63;;;15.33;100.00
71457;BME280;59263;48.160;11.752;2023-08-06T11:08:33;95128.94;;;15.41;100.00
71457;BME280;59263;48.160;11.752;2023-08-06T11:11:12;95117.81;;;15.54;100.00
71457;BME280;59263;48.160;11.752;2023-08-06T11:13:48;95118.31;;;15.71;100.00
71457;BME280;59263;48.160;11.752;2023-08-06T11:16:15;95123.25;;;15.94;100.00
71457;BME280;59263;48.160;11.752;2023-08-06T11:18:42;95121.81;;;15.85;100.00
71457;BME280;59263;48.160;11.752;2023-08-06T11:21:08;95127.97;;;15.70;100.00
71457;BME280;59263;48.160;11.752;2023-08-06T11:23:34;95129.09;;;15.61;100.00
71457;BME280;59263;48.160;11.752;2023-08-06T11:25:59;95123.97;;;15.46;100.00
71457;BME280;59263;48.160;11.752;2023-08-06T11:28:25;95128.19;;;15.47;100.00
71457;BME280;59263;48.160;11.752;2023-08-06T11:30:51;95139.03;;;15.51;100.00
71457;BME280;59263;48.160;11.752;2023-08-06T11:33:23;95141.66;;;15.51;100.00
71457;BME280;59263;48.160;11.752;2023-08-06T11:35:51;95134.34;;;15.40;100.00
71457;BME280;59263;48.160;11.752;2023-08-06T11:38:16;95149.84;;;15.48;100.00
71457;BME280;59263;48.160;11.752;2023-08-06T11:40:46;95146.88;;;15.51;100.00
71457;BME280;59263;48.160;11.752;2023-08-06T11:43:12;95154.22;;;15.41;100.00
71457;BME280;59263;48.160;11.752;2023-08-06T11:45:38;95154.88;;;15.21;100.00
71457;BME280;59263;48.160;11.752;2023-08-06T11:48:03;95142.41;;;15.17;100.00
71457;BME280;59263;48.160;11.752;2023-08-06T11:50:30;95149.44;;;15.23;100.00
71457;BME280;59263;48.160;11.752;2023-08-06T11:52:59;95173.25;;;15.13;100.00
71457;BME280;59263;48.160;11.752;2023-08-06T11:55:26;95162.38;;;15.10;100.00
71457;BME280;59263;48.160;11.752;2023-08-06T11:57:53;95168.50;;;15.23;100.00
71457;BME280;59263;48.160;11.752;2023-08-06T12:00:19;95157.00;;;15.39;100.00
71457;BME280;59263;48.160;11.752;2023-08-06T12:02:48;95164.25;;;15.44;100.00
71457;BME280;59263;48.160;11.752;2023-08-06T12:05:20;95159.31;;;15.28;100.00
71457;BME280;59263;48.160;11.752;2023-08-06T12:07:54;95162.03;;;15.19;100.00
71457;BME280;59263;48.160;11.752;2023-08-06T12:10:20;95175.16;;;15.05;100.00
71457;BME280;59263;48.160;11.752;2023-08-06T12:12:46;95174.91;;;14.99;100.00
71457;BME280;59263;48.160;11.752;2023-08-06T12:15:11;95184.41;;;15.07;100.00
71457;BME280;59263;48.160;11.752;2023-08-06T12:17:37;95181.13;;;14.98;100.00
71457;BME280;59263;48.160;11.752;2023-08-06T12:20:06;95172.75;;;15.03;100.00
71457;BME280;59263;48.160;11.752;2023-08-06T12:22:32;95179.06;;;14.94;100.00
71457;BME280;59263;48.160;11.752;2023-08-06T12:25:18;95170.25;;;14.95;100.00
71457;BME280;59263;48.160;11.752;2023-08-06T12:27:44;95164.28;;;15.01;100.00
71457;BME280;59263;48.160;11.752;2023-08-06T12:30:11;95173.09;;;15.21;100.00
71457;BME280;59263;48.160;11.752;2023-08-06T12:32:38;95172.91;;;15.23;100.00
71457;BME280;59263;48.160;11.752;2023-08-06T12:35:03;95176.56;;;15.29;100.00
71457;BME280;59263;48.160;11.752;2023-08-06T12:37:30;95165.00;;;15.38;100.00